Weather observations for the past three days for
Brownwood, Brownwood Regional Airport
| Date | Time (cdt) | Wind (kph) | Vis. (km) | Weather | Sky Cond. | Temperature (ºC) | Relative Humidity | Wind Chill (°C) | Heat Index (°C) | Pressure | Precipitation (cm) | ||||||
|---|---|---|---|---|---|---|---|---|---|---|---|---|---|---|---|---|---|
| Air | Dwpt | 6 hour | altimeter (cm) | sea level (mb) | 1 hr | 3 hr | 6 hr | ||||||||||
| Max. | Min. | ||||||||||||||||
| 07 | 15:15 | E 13 | 16.09 | A Few Clouds | FEW200 | 17.9 | 9.8 | 59% | 76.28 | 0.0 | |||||||
| 07 | 14:55 | E 11 | 16.09 | Partly Cloudy | SCT120 SCT200 | 18 | 9.7 | 59% | 76.33 | 0.0 | |||||||
| 07 | 14:35 | E 13 | 16.09 | Mostly Cloudy | BKN120 | 17.5 | 9.2 | 58% | 76.35 | 0.0 | |||||||
| 07 | 14:15 | E 13 | 16.09 | Partly Cloudy | FEW120 SCT210 | 17.4 | 9 | 58% | 76.35 | 0.0 | |||||||
| 07 | 13:55 | E 9 | 16.09 | A Few Clouds | FEW210 | 17.4 | 9.3 | 59% | 76.38 | 0.0 | |||||||
| 07 | 13:35 | E 17 | 16.09 | Partly Cloudy | FEW100 SCT220 | 17.2 | 9.8 | 62% | 76.38 | 0.0 | |||||||
| 07 | 13:15 | E 13 | 16.09 | Mostly Cloudy | SCT100 SCT140 BKN240 | 17.3 | 9.7 | 61% | 76.38 | 0.0 | |||||||
| 07 | 12:55 | E 17 | 16.09 | Partly Cloudy | SCT250 | 17.8 | 9.8 | 60% | 76.4 | 0.0 | |||||||
| 07 | 12:35 | E 15 | 16.09 | Mostly Cloudy | FEW110 SCT160 SCT250 BKN330 | 17.7 | 10.2 | 62% | 76.4 | 0.0 | |||||||
| 07 | 12:15 | E 15 | 16.09 | Partly Cloudy | SCT160 SCT250 | 17.3 | 10.1 | 63% | 76.43 | 0.0 | |||||||
| 07 | 11:55 | NE 13 | 16.09 | Partly Cloudy | SCT170 SCT240 SCT260 | 17 | 9.8 | 63% | 76.4 | 0.0 | |||||||
| 07 | 11:35 | NE 9 | 16.09 | Mostly Cloudy | SCT160 SCT180 BKN250 | 16.9 | 10.4 | 66% | 76.43 | 0.0 | |||||||
| 07 | 11:15 | NE 7 | 16.09 | Mostly Cloudy | BKN150 BKN250 | 16.1 | 10.4 | 69% | 76.48 | 0.0 | |||||||
| 07 | 10:55 | Vrbl 11 | 16.09 | Mostly Cloudy | BKN150 BKN180 BKN250 | 16 | 10.1 | 68% | 76.48 | 0.0 | |||||||
| 07 | 10:35 | NE 13 | 16.09 | Mostly Cloudy | SCT150 BKN260 | 15.4 | 9.8 | 69% | 76.48 | 0.0 | |||||||
| 07 | 10:15 | Vrbl 11 | 16.09 | Partly Cloudy | FEW170 SCT260 | 15.7 | 10.2 | 70% | 76.45 | 0.0 | |||||||
| 07 | 09:55 | NE 11 | 16.09 | Mostly Cloudy | SCT160 BKN180 BKN260 | 15.4 | 9.8 | 69% | 76.45 | 0.0 | |||||||
| 07 | 09:35 | NE 9 | 16.09 | Mostly Cloudy | BKN150 | 14.3 | 9.4 | 73% | 76.48 | 0.0 | |||||||
| 07 | 09:15 | E 11 | 16.09 | Partly Cloudy | SCT160 | 13.8 | 9.4 | 75% | 76.5 | 0.0 | |||||||
| 07 | 08:55 | NE 11 | 16.09 | Partly Cloudy | SCT170 SCT270 | 13 | 10.1 | 83% | 76.48 | 0.0 | |||||||
| 07 | 08:35 | NE 11 | 16.09 | Mostly Cloudy | BKN150 | 12.1 | 10 | 87% | 76.48 | 0.0 | |||||||
| 07 | 08:15 | NE 9 | 14.48 | Mostly Cloudy | BKN150 | 11.9 | 10 | 88% | 76.5 | 0.0 | |||||||
| 07 | 07:55 | NE 7 | 14.48 | Mostly Cloudy | SCT160 BKN270 | 11.6 | 9.9 | 89% | 76.5 | 0.0 | |||||||
| 07 | 07:35 | NE 11 | 14.48 | Partly Cloudy | SCT270 | 11.2 | 9.9 | 92% | 76.48 | 0.0 | |||||||
| 07 | 07:15 | NE 7 | 14.48 | Partly Cloudy | SCT270 | 11.1 | 9.8 | 92% | 76.5 | 0.0 | |||||||
| 07 | 06:55 | NE 9 | 14.48 | A Few Clouds | FEW022 | 11.2 | 9.8 | 91% | 76.48 | 0.0 | |||||||
| 07 | 06:35 | NE 9 | 16.09 | Mostly Cloudy | BKN022 | 11.6 | 10 | 90% | 76.48 | 0.0 | |||||||
| 07 | 06:15 | NE 13 | 16.09 | Overcast | OVC022 | 12 | 10.2 | 89% | 76.45 | 0.0 | |||||||
| 07 | 05:55 | N 15 | 16.09 | Overcast | OVC021 | 12.3 | 10.5 | 89% | 76.48 | 0.0 | |||||||
| 07 | 05:35 | N 9 | 16.09 | Overcast | SCT015 OVC021 | 12.7 | 10.7 | 88% | 76.45 | 0.0 | |||||||
| 07 | 05:15 | N 7 | 16.09 | Overcast | OVC018 | 12.8 | 10.9 | 88% | 76.45 | 0.0 | |||||||
| 07 | 04:55 | NE 6 | 16.09 | Overcast | OVC019 | 12.8 | 10.9 | 88% | 76.45 | 0.0 | |||||||
| 07 | 04:35 | NE 7 | 16.09 | Overcast | OVC018 | 12.8 | 10.8 | 88% | 76.43 | 0.0 | |||||||
| 07 | 04:15 | NE 7 | 16.09 | Overcast | OVC017 | 12.8 | 10.8 | 88% | 76.4 | 0.0 | |||||||
| 07 | 03:55 | NE 11 | 16.09 | Overcast | OVC016 | 12.9 | 11 | 88% | 76.35 | 0.0 | |||||||
| 07 | 03:35 | NE 11 | 16.09 | Overcast | OVC014 | 13.1 | 11 | 87% | 76.33 | 0.0 | |||||||
| 07 | 03:15 | NE 11 | 16.09 | Overcast | OVC013 | 13.2 | 11.2 | 88% | 76.33 | 0.0 | |||||||
| 07 | 02:55 | NE 9 | 16.09 | Overcast | OVC013 | 13.1 | 11.3 | 89% | 76.3 | 0.0 | |||||||
| 07 | 02:35 | NE 9 | 16.09 | Overcast | OVC014 | 13 | 11.6 | 91% | 76.3 | 0.0 | |||||||
| 07 | 02:15 | NE 7 | 16.09 | Overcast | OVC014 | 13.1 | 11.6 | 91% | 76.3 | 0.0 | |||||||
| 07 | 01:55 | NE 9 | 16.09 | Partly Cloudy | SCT015 | 12.9 | 11.4 | 91% | 76.3 | 0.0 | |||||||
| 07 | 01:35 | N 6 | 16.09 | Partly Cloudy | FEW017 SCT260 | 12.9 | 11.3 | 90% | 76.28 | 0.0 | |||||||
| 07 | 01:15 | N 6 | 16.09 | Mostly Cloudy | FEW018 BKN260 | 13 | 11.4 | 90% | 76.25 | 0.0 | |||||||
| 07 | 00:55 | NE 7 | 16.09 | Mostly Cloudy | BKN018 BKN260 | 13.4 | 11.4 | 88% | 76.23 | 0.0 | |||||||
| 07 | 00:35 | NE 9 | 16.09 | Partly Cloudy | SCT260 | 13.7 | 11.4 | 86% | 76.23 | 0.0 | |||||||
| 07 | 00:15 | NE 6 | 16.09 | Mostly Cloudy | BKN260 | 14 | 11.5 | 85% | 76.23 | 0.0 | |||||||
| 06 | 23:55 | NE 7 | 16.09 | A Few Clouds | FEW260 | 14.3 | 11.5 | 83% | 76.23 | 0.0 | |||||||
| 06 | 23:35 | E 11 | 16.09 | A Few Clouds | FEW260 | 14.2 | 12 | 87% | 76.23 | 0.0 | |||||||
| 06 | 23:15 | E 6 | 16.09 | A Few Clouds | FEW280 | 14.5 | 12.3 | 87% | 76.23 | 0.0 | |||||||
| 06 | 22:55 | Calm | 16.09 | Fair | CLR | 14.5 | 12.2 | 86% | 76.17 | 0.0 | |||||||
| 06 | 22:35 | NE 9 | 16.09 | Fair | CLR | 14.6 | 12.4 | 87% | 76.15 | 0.0 | |||||||
| 06 | 22:15 | NE 9 | 16.09 | Fair | CLR | 14.7 | 13.1 | 90% | 76.15 | 0.0 | |||||||
| 06 | 21:55 | NE 7 | 16.09 | Fair | CLR | 14.7 | 13.1 | 90% | 76.17 | 0.0 | |||||||
| 06 | 21:35 | NE 7 | 16.09 | Fair | CLR | 15.4 | 13.4 | 88% | 76.15 | 0.0 | |||||||
| 06 | 21:15 | NE 6 | 16.09 | A Few Clouds | FEW290 | 15.9 | 13.4 | 85% | 76.15 | 0.0 | |||||||
| 06 | 20:55 | E 6 | 16.09 | A Few Clouds | FEW290 | 16.2 | 13.2 | 83% | 76.12 | 0.0 | |||||||
| 06 | 20:35 | E 11 | 16.09 | Partly Cloudy | SCT280 | 17.1 | 13.3 | 78% | 76.1 | 0.0 | |||||||
| 06 | 20:15 | E 7 | 16.09 | Mostly Cloudy | FEW250 BKN280 | 17.9 | 13.1 | 74% | 76.05 | 0.0 | |||||||
| 06 | 19:55 | E 7 | 16.09 | Mostly Cloudy | SCT250 BKN280 | 18.6 | 12.9 | 70% | 76.05 | 0.0 | |||||||
| 06 | 19:35 | NE 9 | 16.09 | Overcast | BKN260 OVC280 | 19.1 | 13 | 68% | 76.02 | 0.0 | |||||||
| 06 | 19:15 | NE 7 | 16.09 | Overcast | BKN260 OVC280 | 19.6 | 13.1 | 66% | 76.02 | 0.0 | |||||||
| 06 | 18:55 | NE 7 | 16.09 | Overcast | BKN250 OVC270 | 19.4 | 12.7 | 65% | 76.02 | 0.0 | |||||||
| 06 | 18:35 | Calm | 16.09 | Mostly Cloudy | BKN240 BKN270 | 19.6 | 12.5 | 64% | 76 | 0.0 | |||||||
| 06 | 18:15 | N 11 | 16.09 | Overcast | OVC240 | 19.9 | 12.2 | 61% | 76 | 0.0 | |||||||
| 06 | 17:55 | NE 6 | 16.09 | Overcast | OVC240 | 19.8 | 13 | 65% | 76 | 0.0 | |||||||
| 06 | 17:35 | NE 7 | 16.09 | Overcast | OVC230 | 19.3 | 12.6 | 65% | 76 | 0.0 | |||||||
| 06 | 17:15 | NE 9 | 16.09 | Overcast | OVC230 | 18.8 | 12.5 | 67% | 75.97 | 0.0 | |||||||
| 06 | 16:55 | N 11 | 16.09 | Overcast | OVC230 | 18.8 | 12.5 | 67% | 75.97 | 0.0 | |||||||
| 06 | 16:35 | N 6 | 16.09 | Overcast | OVC220 | 17.9 | 12.3 | 70% | 75.97 | 0.0 | |||||||
| 06 | 16:15 | Vrbl 7 | 16.09 | Mostly Cloudy | FEW029 BKN220 | 18.2 | 12.4 | 69% | 76 | 0.0 | |||||||
| 06 | 15:55 | N 9 | 16.09 | Overcast | BKN026 OVC031 | 17.6 | 12 | 70% | 76.02 | 0.0 | |||||||
| 06 | 15:35 | N 13 | 16.09 | Overcast | OVC024 | 17.1 | 11.9 | 72% | 76.02 | 0.0 | |||||||
| 06 | 15:15 | N 19 | 16.09 | Overcast | OVC023 | 16.7 | 11.7 | 73% | 76.05 | 0.0 | |||||||
| 06 | 14:55 | N 15 | 16.09 | Overcast | OVC023 | 16.4 | 11.7 | 74% | 76.05 | 0.0 | |||||||
| 06 | 14:35 | N 13 | 16.09 | Overcast | OVC021 | 16 | 11.4 | 74% | 76.07 | 0.0 | |||||||
| 06 | 14:15 | N 15 | 16.09 | Overcast | OVC019 | 15.4 | 11.1 | 76% | 76.1 | 0.0 | |||||||
| 06 | 13:55 | N 13 | 16.09 | Overcast | OVC016 | 14.6 | 10.9 | 79% | 76.12 | 0.0 | |||||||
| 06 | 13:35 | N 13 | 16.09 | Overcast | OVC016 | 14.2 | 10.9 | 81% | 76.12 | 0.0 | |||||||
| 06 | 13:15 | N 17 | 16.09 | Overcast | OVC014 | 13.8 | 10.9 | 83% | 76.15 | 0.0 | |||||||
| 06 | 12:55 | N 19 | 16.09 | Overcast | OVC012 | 13 | 10.6 | 85% | 76.12 | 0.0 | |||||||
| 06 | 12:35 | N 20 | 16.09 | Overcast | OVC012 | 12.6 | 10.7 | 88% | 76.12 | 0.0 | |||||||
| 06 | 12:20 | N 17 | 16.09 | Overcast | OVC010 | 12.2 | 10.4 | 89% | 76.15 | 0.0 | |||||||
| 06 | 11:55 | N 19 | 16.09 | Overcast | OVC009 | 11.8 | 10.6 | 92% | 76.12 | 0.0 | |||||||
| 06 | 11:35 | N 15 | 16.09 | Overcast | OVC009 | 11.8 | 10.6 | 92% | 76.12 | 0.0 | |||||||
| 06 | 11:15 | N 20 | 16.09 | Overcast | OVC009 | 11.8 | 10.5 | 92% | 76.12 | 0.0 | |||||||
| 06 | 10:55 | N 20 | 16.09 | Overcast | OVC010 | 11.7 | 10.7 | 94% | 76.07 | 0.0 | |||||||
| 06 | 10:35 | N 17 | 16.09 | Overcast | OVC010 | 11.8 | 10.8 | 94% | 76.1 | 0.0 | |||||||
| 06 | 10:15 | N 15 | 16.09 | Overcast | OVC009 | 11.8 | 10.8 | 94% | 76.05 | 0.0 | |||||||
| 06 | 09:55 | NE 13 G 26 | 16.09 | Overcast | BKN009 OVC014 | 11.5 | 10.6 | 94% | 76.02 | 0.0 | |||||||
| 06 | 09:35 | NE 17 | 14.48 | Overcast | SCT009 OVC014 | 11.2 | 10.7 | 97% | 75.95 | 0.0 | 0.1 | ||||||
| 06 | 09:15 | Vrbl 9 | 6.44 | Rain Fog/Mist | OVC009 | 11 | 10.7 | 98% | 76.02 | 0.0 | 0.08 | ||||||
| 06 | 08:55 | Vrbl 7 | 8.05 | Light Rain Fog/Mist | BKN011 BKN017 OVC080 | 11.2 | 10.6 | 96% | 76.15 | 0.0 | 0.03 | ||||||
| 06 | 08:35 | N 17 | 11.27 | Light Rain | OVC011 | 11.4 | 10.4 | 94% | 76.12 | 0.0 | |||||||
| 06 | 08:15 | N 22 | 9.66 | Light Rain Fog/Mist | OVC010 | 11.4 | 10.2 | 92% | 76.02 | 0.0 | |||||||
| 06 | 07:55 | N 20 G 33 | 14.48 | Overcast | OVC010 | 11.7 | 9.7 | 88% | 76 | 0.0 | |||||||
| 06 | 07:35 | N 26 | 14.48 | Overcast | OVC011 | 12.2 | 9.8 | 85% | 76 | 0.0 | |||||||
| 06 | 07:15 | N 22 | 14.48 | Overcast | OVC012 | 12.3 | 9.9 | 85% | 75.95 | 0.0 | |||||||
| 06 | 06:55 | N 17 | 16.09 | Overcast | OVC014 | 12.5 | 9.9 | 84% | 75.9 | 0.0 | |||||||
| 06 | 06:35 | N 15 | 16.09 | Overcast | OVC013 | 12.7 | 10 | 84% | 75.84 | 0.0 | |||||||
| 06 | 06:15 | N 17 | 16.09 | Overcast | OVC015 | 12.8 | 10.2 | 84% | 75.87 | 0.0 | |||||||
| 06 | 05:55 | N 17 | 16.09 | Overcast | OVC016 | 13.1 | 10.5 | 84% | 75.87 | 0.0 | |||||||
| 06 | 05:35 | N 19 | 16.09 | Overcast | OVC017 | 13.3 | 10.6 | 84% | 75.84 | 0.0 | |||||||
| 06 | 05:15 | N 9 | 16.09 | Overcast | OVC017 | 13.6 | 11 | 84% | 75.82 | 0.0 | |||||||
| 06 | 04:55 | NE 13 | 16.09 | Overcast | OVC017 | 13.9 | 11.5 | 86% | 75.77 | 0.0 | |||||||
| 06 | 04:35 | N 17 | 16.09 | Overcast | OVC018 | 14.2 | 11.5 | 84% | 75.79 | 0.0 | |||||||
| 06 | 04:15 | N 11 | 16.09 | Overcast | OVC018 | 14.6 | 11.8 | 83% | 75.77 | 0.0 | |||||||
| 06 | 03:55 | N 13 | 16.09 | Overcast | OVC018 | 14.7 | 12 | 84% | 75.74 | 0.0 | |||||||
| 06 | 03:35 | N 17 | 16.09 | Overcast | OVC019 | 14.9 | 12.2 | 84% | 75.74 | 0.0 | |||||||
| 06 | 03:15 | N 9 | 16.09 | Mostly Cloudy | SCT020 BKN230 | 14.9 | 12.5 | 86% | 75.74 | 0.0 | |||||||
| 06 | 02:55 | N 11 | 16.09 | Fair | CLR | 15.2 | 12.9 | 86% | 75.74 | 0.0 | |||||||
| 06 | 02:35 | N 15 | 16.09 | Fair | CLR | 15.9 | 13.6 | 86% | 75.72 | 0.0 | |||||||
| 06 | 02:15 | N 15 | 16.09 | Fair | CLR | 16.6 | 13.9 | 84% | 75.72 | 0.0 | |||||||
| 06 | 01:55 | NE 6 | 16.09 | Fair | CLR | 16.9 | 13.8 | 82% | 75.69 | 0.0 | |||||||
| 06 | 00:55 | NE 11 | 16.09 | Fair | CLR | 18.2 | 13.6 | 75% | 75.69 | 0.0 | |||||||
| 06 | 00:35 | NE 9 | 16.09 | Fair | CLR | 18.6 | 13.4 | 72% | 75.69 | 0.0 | |||||||
| 06 | 00:15 | NE 9 | 16.09 | Fair | CLR | 19 | 13.4 | 70% | 75.67 | 0.0 | |||||||
| 05 | 23:55 | NE 11 | 16.09 | A Few Clouds | FEW240 | 19.3 | 13.5 | 69% | 75.67 | 0.0 | |||||||
| 05 | 23:35 | NE 9 | 16.09 | Mostly Cloudy | SCT220 BKN250 | 19.9 | 13.7 | 68% | 75.67 | 0.0 | |||||||
| 05 | 23:15 | NE 19 | 4.83 | Mostly Cloudy with Haze | BKN210 BKN240 | 20.3 | 13.8 | 66% | 75.67 | 0.0 | |||||||
| 05 | 22:55 | NE 13 | 16.09 | Fair | CLR | 20.9 | 14 | 65% | 75.64 | 0.0 | |||||||
| 05 | 22:35 | NE 9 | 16.09 | Fair | CLR | 21.4 | 14.5 | 65% | 75.62 | 0.0 | |||||||
| 05 | 22:15 | NE 15 | 16.09 | Fair | CLR | 22 | 15.1 | 65% | 75.62 | 0.0 | |||||||
| 05 | 21:55 | NE 11 | 16.09 | Fair | CLR | 22.6 | 15.9 | 66% | 75.59 | 0.0 | |||||||
| 05 | 21:35 | NE 17 | 14.48 | Fair | CLR | 23.4 | 16.3 | 64% | 75.54 | 0.0 | |||||||
| 05 | 21:15 | NE 17 | 16.09 | Fair | CLR | 24.1 | 16.5 | 63% | 25 | 75.46 | 0.0 | ||||||
| 05 | 20:55 | NW 26 | 16.09 | Fair | CLR | 25 | 16.6 | 60% | 26 | 75.46 | 0.0 | ||||||
| 05 | 20:35 | Vrbl 7 | 16.09 | Fair | CLR | 25.4 | 17.5 | 62% | 26 | 75.41 | 0.0 | ||||||
| 05 | 20:15 | S 9 | 16.09 | Fair | CLR | 26.7 | 17.9 | 59% | 28 | 75.34 | 0.0 | ||||||
| 05 | 19:55 | S 9 | 16.09 | Fair | CLR | 27.2 | 18 | 57% | 28 | 75.31 | 0.0 | ||||||
| 05 | 19:35 | SE 9 | 16.09 | Fair | CLR | 28.1 | 17.6 | 53% | 29 | 75.31 | 0.0 | ||||||
| 05 | 19:15 | S 9 | 16.09 | Fair | CLR | 29.3 | 17 | 47% | 30 | 75.34 | 0.0 | ||||||
| 05 | 18:55 | S 9 | 16.09 | Fair | CLR | 29.8 | 16.8 | 46% | 30 | 75.34 | 0.0 | ||||||
| 05 | 18:35 | S 13 | 16.09 | A Few Clouds | FEW190 | 31.6 | 15.3 | 37% | 31 | 75.34 | 0.0 | ||||||
| 05 | 18:15 | SW 11 | 16.09 | Mostly Cloudy | BKN190 | 31.9 | 15.5 | 37% | 32 | 75.36 | 0.0 | ||||||
| 05 | 17:55 | S 9 | 16.09 | Mostly Cloudy | BKN200 | 31.9 | 15.6 | 37% | 32 | 75.34 | 0.0 | ||||||
| 05 | 17:35 | SW 11 | 16.09 | Overcast | OVC190 | 32.2 | 14.4 | 34% | 32 | 75.34 | 0.0 | ||||||
| 05 | 17:15 | SW 15 | 16.09 | Overcast | BKN190 OVC210 | 32.5 | 14.6 | 34% | 32 | 75.36 | 0.0 | ||||||
| 05 | 16:55 | SW 11 | 16.09 | Mostly Cloudy | BKN210 | 32.1 | 15.4 | 36% | 32 | 75.36 | 0.0 | ||||||
| 05 | 16:35 | SW 11 | 16.09 | A Few Clouds | FEW220 | 32.8 | 15.4 | 35% | 33 | 75.36 | 0.0 | ||||||
| 05 | 16:15 | NW 9 | 16.09 | A Few Clouds | FEW220 | 32.3 | 15.6 | 37% | 32 | 75.36 | 0.0 | ||||||
| 05 | 15:55 | Vrbl 7 | 16.09 | A Few Clouds | FEW340 | 31.8 | 18 | 44% | 33 | 75.39 | 0.0 | ||||||
| 05 | 15:35 | Vrbl 7 | 16.09 | A Few Clouds | FEW330 | 31.4 | 18.1 | 45% | 32 | 75.39 | 0.0 | ||||||
| 05 | 15:15 | SW 13 | 16.09 | A Few Clouds | FEW370 | 31.3 | 18.5 | 46% | 32 | 75.41 | 0.0 | ||||||
| 05 | 14:55 | SW 19 | 16.09 | A Few Clouds | FEW320 | 31.3 | 18.8 | 47% | 33 | 75.44 | 0.0 | ||||||
| 05 | 14:35 | SW 15 | 16.09 | A Few Clouds | FEW340 | 31 | 18.8 | 48% | 32 | 75.44 | 0.0 | ||||||
| 05 | 14:15 | W 13 | 16.09 | Partly Cloudy | FEW290 SCT340 SCT360 | 30.6 | 19 | 50% | 32 | 75.46 | 0.0 | ||||||
| 05 | 13:55 | S 17 | 16.09 | Partly Cloudy | FEW280 SCT350 SCT370 | 30.3 | 19.8 | 53% | 32 | 75.49 | 0.0 | ||||||
| 05 | 13:35 | SW 11 G 28 | 16.09 | Partly Cloudy | FEW240 SCT370 | 29.9 | 19.4 | 53% | 31 | 75.51 | 0.0 | ||||||
| 05 | 13:15 | SW 19 | 16.09 | Partly Cloudy | FEW290 SCT370 | 29.7 | 20.4 | 57% | 32 | 75.51 | 0.0 | ||||||
| 05 | 12:55 | SW 17 | 16.09 | A Few Clouds | FEW290 | 29.1 | 20.8 | 61% | 31 | 75.54 | 0.0 | ||||||
| 05 | 12:35 | SW 17 | 16.09 | A Few Clouds | FEW280 | 28.3 | 20.7 | 63% | 30 | 75.54 | 0.0 | ||||||
| 05 | 12:15 | SW 17 | 16.09 | Partly Cloudy | FEW280 SCT370 | 27.5 | 20.6 | 66% | 29 | 75.54 | 0.0 | ||||||
| 05 | 11:55 | SW 20 | 16.09 | Partly Cloudy | FEW320 SCT380 | 27.1 | 20.6 | 68% | 29 | 75.57 | 0.0 | ||||||
| 05 | 11:35 | SW 17 | 16.09 | A Few Clouds | FEW290 | 26.5 | 20.4 | 69% | 28 | 75.54 | 0.0 | ||||||
| 05 | 11:15 | SW 20 G 30 | 16.09 | Partly Cloudy | SCT310 | 26.4 | 20.5 | 70% | 28 | 75.54 | 0.0 | ||||||
| 05 | 10:55 | S 17 | 16.09 | A Few Clouds | FEW300 | 25.1 | 20.5 | 76% | 26 | 75.54 | 0.0 | ||||||
| 05 | 10:35 | S 17 | 16.09 | Fair | CLR | 24.5 | 20.5 | 78% | 25 | 75.54 | 0.0 | ||||||
| 05 | 10:15 | SW 19 | 16.09 | Fair | CLR | 23.9 | 20.3 | 80% | 24 | 75.54 | 0.0 | ||||||
| 05 | 09:55 | SW 19 | 16.09 | Fair | CLR | 23.4 | 19.9 | 81% | 75.57 | 0.0 | |||||||
| 05 | 09:35 | SW 15 | 14.48 | A Few Clouds | FEW017 | 22.9 | 19.9 | 83% | 75.59 | 0.0 | |||||||
| 05 | 09:15 | S 9 | 16.09 | Fair | CLR | 22.2 | 20 | 87% | 75.57 | 0.0 | |||||||
| 05 | 08:55 | S 9 | 16.09 | Fair | CLR | 21.1 | 19.4 | 90% | 75.54 | 0.0 | |||||||
| 05 | 08:35 | S 9 | 16.09 | Fair | CLR | 20.3 | 19.1 | 93% | 75.54 | 0.0 | |||||||
| 05 | 08:15 | S 7 | 16.09 | Fair | CLR | 19.6 | 18.9 | 96% | 75.54 | 0.0 | |||||||
| 05 | 07:55 | S 7 | 16.09 | Fair | CLR | 18.6 | 18.4 | 99% | 75.51 | 0.0 | |||||||
| 05 | 07:35 | S 7 | 14.48 | Fair | CLR | 17.8 | 17.8 | 100% | 75.49 | 0.0 | |||||||
| 05 | 07:15 | SE 6 | 12.87 | Fair | CLR | 16 | 16 | 100% | 75.49 | 0.0 | |||||||
| 05 | 06:55 | S 7 | 14.48 | Fair | CLR | 16.9 | 16.9 | 100% | 75.46 | 0.0 | |||||||
| 05 | 06:35 | Calm | 14.48 | Fair | CLR | 16.6 | 16.6 | 100% | 75.44 | 0.0 | |||||||
| 05 | 06:15 | Calm | 16.09 | Fair | CLR | 17.8 | 17.5 | 98% | 75.44 | 0.0 | |||||||
| 05 | 05:55 | SE 7 | 16.09 | Fair | CLR | 17.9 | 17.6 | 98% | 75.44 | 0.0 | |||||||
| 05 | 05:35 | SE 7 | 16.09 | Fair | CLR | 18.4 | 17.8 | 96% | 75.44 | 0.0 | |||||||
| 05 | 05:15 | S 7 | 16.09 | Fair | CLR | 18.5 | 17.7 | 95% | 75.44 | 0.0 | |||||||
| 05 | 04:55 | S 7 | 16.09 | Fair | CLR | 17.9 | 17.5 | 98% | 75.44 | 0.0 | |||||||
| 05 | 04:35 | S 9 | 16.09 | Fair | CLR | 17.6 | 17.3 | 98% | 75.44 | 0.0 | |||||||
| 05 | 04:15 | SE 9 | 16.09 | Fair | CLR | 17.3 | 17.2 | 99% | 75.46 | 0.0 | |||||||
| 05 | 03:55 | SE 6 | 16.09 | Fair | CLR | 17.8 | 17.1 | 96% | 75.46 | 0.0 | |||||||
| 05 | 03:35 | SE 6 | 16.09 | Fair | CLR | 18.4 | 17.7 | 96% | 75.49 | 0.0 | |||||||
| 05 | 03:15 | SE 6 | 16.09 | Fair | CLR | 18.6 | 17.6 | 94% | 75.49 | 0.0 | |||||||
| 05 | 02:55 | SE 6 | 16.09 | A Few Clouds | FEW240 | 19.2 | 17.8 | 92% | 75.49 | 0.0 | |||||||
| 05 | 02:35 | SE 6 | 14.48 | Fair | CLR | 19.3 | 17.8 | 91% | 75.51 | 0.0 | |||||||
| 05 | 02:15 | SE 6 | 16.09 | Fair | CLR | 19.9 | 18 | 89% | 75.51 | 0.0 | |||||||
| 05 | 01:55 | S 9 | 16.09 | Fair | CLR | 20.5 | 18 | 86% | 75.54 | 0.0 | |||||||
| 05 | 01:35 | S 11 | 16.09 | Fair | CLR | 20.7 | 18.1 | 85% | 75.54 | 0.0 | |||||||
| 05 | 01:15 | S 11 | 16.09 | A Few Clouds | FEW250 | 21.2 | 18.2 | 83% | 75.54 | 0.0 | |||||||
| 05 | 00:55 | S 13 | 16.09 | Fair | CLR | 21.5 | 18.2 | 82% | 75.54 | 0.0 | |||||||
| 05 | 00:35 | S 11 | 16.09 | Fair | CLR | 21.5 | 18.1 | 81% | 75.57 | 0.0 | |||||||
| 05 | 00:15 | S 13 | 16.09 | Fair | CLR | 21.5 | 18.1 | 81% | 75.54 | 0.0 | |||||||
| 04 | 23:55 | S 11 | 16.09 | Fair | CLR | 22.1 | 18.1 | 78% | 75.57 | 0.0 | |||||||
| 04 | 23:35 | S 15 | 16.09 | Fair | CLR | 22.3 | 18.1 | 77% | 75.54 | 0.0 | |||||||
| 04 | 23:15 | S 15 | 16.09 | Fair | CLR | 22.6 | 18 | 75% | 75.54 | 0.0 | |||||||
| 04 | 22:55 | S 19 | 16.09 | Fair | CLR | 23 | 18 | 74% | 75.54 | 0.0 | |||||||
| 04 | 22:35 | S 19 | 16.09 | Fair | CLR | 23.2 | 18 | 73% | 75.54 | 0.0 | |||||||
| 04 | 22:15 | S 17 | 16.09 | A Few Clouds | FEW280 | 23.6 | 17.9 | 70% | 75.51 | 0.0 | |||||||
| 04 | 21:35 | S 19 | 16.09 | Fair | CLR | 24 | 18.2 | 70% | 25 | 75.49 | 0.0 | ||||||
| 04 | 21:15 | S 17 | 16.09 | Fair | CLR | 24.1 | 18.3 | 70% | 25 | 75.49 | 0.0 | ||||||
| 04 | 20:55 | S 17 | 16.09 | Fair | CLR | 24.5 | 18.4 | 69% | 25 | 75.49 | 0.0 | ||||||
| 04 | 20:35 | S 17 | 16.09 | Fair | CLR | 25.2 | 18.3 | 66% | 26 | 75.46 | 0.0 | ||||||
| 04 | 20:15 | S 19 | 16.09 | Fair | CLR | 25.9 | 18.5 | 64% | 27 | 75.44 | 0.0 | ||||||
| 04 | 19:55 | S 17 | 16.09 | Fair | CLR | 26.2 | 18.5 | 63% | 27 | 75.44 | 0.0 | ||||||
| 04 | 19:35 | S 17 | 16.09 | Fair | CLR | 26.8 | 18.4 | 60% | 28 | 75.46 | 0.0 | ||||||
| 04 | 19:15 | S 20 | 16.09 | Fair | CLR | 27.4 | 18.4 | 58% | 28 | 75.46 | 0.0 | ||||||
| 04 | 18:55 | S 19 | 16.09 | Fair | CLR | 27.9 | 18.5 | 57% | 29 | 75.49 | 0.0 | ||||||
| 04 | 18:35 | S 22 | 16.09 | Partly Cloudy | SCT240 | 28.5 | 18.1 | 53% | 29 | 75.49 | 0.0 | ||||||
| 04 | 18:15 | S 22 | 16.09 | Overcast | BKN230 OVC250 | 28.8 | 18.1 | 52% | 30 | 75.51 | 0.0 | ||||||
| 04 | 17:55 | S 24 | 16.09 | Partly Cloudy | SCT220 | 27.8 | 17.9 | 55% | 29 | 75.51 | 0.0 | ||||||
| 04 | 17:35 | S 19 G 37 | 16.09 | Fair | CLR | 28.8 | 18.4 | 53% | 30 | 75.51 | 0.0 | ||||||
| 04 | 17:15 | S 24 G 35 | 16.09 | Fair | CLR | 29.3 | 18.4 | 52% | 30 | 75.54 | 0.0 | ||||||
| 04 | 16:55 | S 22 | 16.09 | Fair | CLR | 28.9 | 18.3 | 53% | 30 | 75.54 | 0.0 | ||||||
| 04 | 16:35 | S 22 | 16.09 | Fair | CLR | 28.7 | 18.2 | 53% | 30 | 75.57 | 0.0 | ||||||
| 04 | 16:15 | S 19 | 16.09 | A Few Clouds | FEW250 | 28.8 | 18.2 | 53% | 30 | 75.59 | 0.0 | ||||||
| 04 | 15:55 | S 22 | 16.09 | A Few Clouds | FEW260 | 28.3 | 18.1 | 54% | 29 | 75.62 | 0.0 | ||||||
| 04 | 15:35 | S 22 | 16.09 | A Few Clouds | FEW300 | 27.9 | 18 | 55% | 29 | 75.64 | 0.0 | ||||||
| Date | Time (cdt) | Wind (kph) | Vis. (km) | Weather | Sky Cond. | Air | Dwpt | Max. | Min. | Relative Humidity | Wind Chill (°C) | Heat Index (°C) | altimeter (cm) | sea level (mb) | 1 hr | 3 hr | 6 hr |
| 6 hour | |||||||||||||||||
| Temperature (ºC) | Pressure | Precipitation (cm) | |||||||||||||||